createdAt,value
2023-05-07T00:00:01.314Z,99.90
2023-05-07T00:02:28.065Z,99.90
2023-05-07T00:04:54.865Z,99.90
2023-05-07T00:07:21.723Z,99.90
2023-05-07T00:09:50.008Z,99.90
2023-05-07T00:12:16.785Z,99.90
2023-05-07T00:14:44.231Z,99.90
2023-05-07T00:17:10.915Z,99.90
2023-05-07T00:19:38.656Z,99.90
2023-05-07T00:22:05.327Z,99.90
2023-05-07T00:24:34.512Z,99.90
2023-05-07T00:27:03.558Z,99.90
2023-05-07T00:29:32.629Z,99.90
2023-05-07T00:31:59.368Z,99.90
2023-05-07T00:34:26.161Z,99.90
2023-05-07T00:36:52.849Z,99.90
2023-05-07T00:39:19.582Z,99.90
2023-05-07T00:41:46.416Z,99.90
2023-05-07T00:44:13.138Z,99.90
2023-05-07T00:46:39.932Z,99.90
2023-05-07T00:49:06.867Z,99.90
2023-05-07T00:51:34.548Z,99.90
2023-05-07T00:54:03.368Z,99.90
2023-05-07T00:56:30.163Z,99.90
2023-05-07T00:58:56.914Z,99.90
2023-05-07T01:01:23.719Z,99.90
2023-05-07T01:03:51.631Z,99.90
2023-05-07T01:06:20.075Z,99.90
2023-05-07T01:08:49.583Z,99.90
2023-05-07T01:11:25.820Z,99.90
2023-05-07T01:13:56.864Z,99.90
2023-05-07T01:16:26.356Z,99.90
2023-05-07T01:18:54.414Z,99.90
2023-05-07T01:21:28.863Z,99.90
2023-05-07T01:23:56.484Z,99.90
2023-05-07T01:26:24.004Z,99.90
2023-05-07T01:28:50.725Z,99.90
2023-05-07T01:31:19.013Z,99.90
2023-05-07T01:33:46.895Z,99.90
2023-05-07T01:36:15.732Z,99.90
2023-05-07T01:38:43.386Z,99.90
2023-05-07T01:41:10.138Z,99.90
2023-05-07T01:43:37.142Z,99.90
2023-05-07T01:46:05.377Z,99.90
2023-05-07T01:48:32.720Z,99.90
2023-05-07T01:51:01.147Z,99.90
2023-05-07T01:53:28.907Z,99.90
2023-05-07T01:55:55.598Z,99.90
2023-05-07T01:58:22.280Z,99.90
2023-05-07T02:00:49.004Z,99.90
2023-05-07T02:03:15.822Z,99.90
2023-05-07T02:05:42.627Z,99.90
2023-05-07T02:08:09.331Z,99.90
2023-05-07T02:10:36.059Z,99.90
2023-05-07T02:13:02.915Z,99.90
2023-05-07T02:15:32.860Z,99.90
2023-05-07T02:18:04.817Z,99.90
2023-05-07T02:20:32.629Z,99.90
2023-05-07T02:22:59.631Z,99.90
2023-05-07T02:25:26.302Z,99.90
2023-05-07T02:27:53.019Z,99.90
2023-05-07T02:30:19.781Z,99.90
2023-05-07T02:32:46.530Z,99.90
2023-05-07T02:35:13.239Z,99.90
2023-05-07T02:37:40.021Z,99.90
2023-05-07T02:40:07.387Z,99.90
2023-05-07T02:42:34.044Z,99.90
2023-05-07T02:45:00.923Z,99.90
2023-05-07T02:47:27.624Z,99.90
2023-05-07T02:49:55.299Z,99.90
2023-05-07T02:52:23.008Z,99.90
2023-05-07T02:54:49.737Z,99.90
2023-05-07T02:57:17.708Z,99.90
2023-05-07T02:59:44.973Z,99.90
2023-05-07T03:02:13.046Z,99.90
2023-05-07T03:04:43.723Z,99.90
2023-05-07T03:07:10.347Z,99.90
2023-05-07T03:09:37.019Z,99.90
2023-05-07T03:12:03.818Z,99.90
2023-05-07T03:14:30.533Z,99.90
2023-05-07T03:16:57.188Z,99.90
2023-05-07T03:19:24.168Z,99.90
2023-05-07T03:21:50.925Z,99.90
2023-05-07T03:24:21.032Z,99.90
2023-05-07T03:27:00.126Z,99.90
2023-05-07T03:29:28.473Z,99.90
2023-05-07T03:31:55.279Z,99.90
2023-05-07T03:34:21.984Z,99.90
2023-05-07T03:36:52.048Z,99.90
2023-05-07T03:39:18.863Z,99.90
2023-05-07T03:41:45.472Z,99.90
2023-05-07T03:44:12.195Z,99.90
2023-05-07T03:46:39.155Z,99.90
2023-05-07T03:49:05.920Z,99.90
2023-05-07T03:51:33.792Z,99.90
2023-05-07T03:54:00.524Z,99.90
2023-05-07T03:56:28.931Z,99.90
2023-05-07T03:58:56.713Z,99.90
2023-05-07T04:01:24.069Z,99.90
2023-05-07T04:03:50.922Z,99.90
2023-05-07T04:06:18.208Z,99.90
2023-05-07T04:08:44.934Z,99.90
2023-05-07T04:11:11.644Z,99.90
2023-05-07T04:13:38.353Z,99.90
2023-05-07T04:16:07.526Z,99.90
2023-05-07T04:18:34.232Z,99.90
2023-05-07T04:21:00.908Z,99.90
2023-05-07T04:23:29.164Z,99.90
2023-05-07T04:25:56.102Z,99.90
2023-05-07T04:28:22.823Z,99.90
2023-05-07T04:30:49.576Z,99.90
2023-05-07T04:33:16.307Z,99.90
2023-05-07T04:35:43.017Z,99.90
2023-05-07T04:38:09.728Z,99.90
2023-05-07T04:40:39.483Z,99.90
2023-05-07T04:43:06.143Z,99.90
2023-05-07T04:45:34.084Z,99.90
2023-05-07T04:48:01.981Z,99.90
2023-05-07T04:50:29.964Z,99.90
2023-05-07T04:52:56.680Z,99.90
2023-05-07T04:55:23.404Z,99.90
2023-05-07T04:57:50.158Z,99.90
2023-05-07T05:00:17.080Z,99.90
2023-05-07T05:02:45.355Z,99.90
2023-05-07T05:05:12.502Z,99.90
2023-05-07T05:07:39.166Z,99.90
2023-05-07T05:10:06.960Z,99.90
2023-05-07T05:12:34.000Z,99.90
2023-05-07T05:15:00.691Z,99.90
2023-05-07T05:17:27.525Z,99.90
2023-05-07T05:19:55.558Z,99.90
2023-05-07T05:22:24.837Z,99.90
2023-05-07T05:24:51.589Z,99.90
2023-05-07T05:27:18.257Z,99.90
2023-05-07T05:29:44.955Z,99.90
2023-05-07T05:32:11.738Z,99.90
2023-05-07T05:34:38.489Z,99.90
2023-05-07T05:37:05.298Z,99.90
2023-05-07T05:39:31.937Z,99.90
2023-05-07T05:41:58.691Z,99.90
2023-05-07T05:44:25.560Z,99.90
2023-05-07T05:46:52.468Z,99.90
2023-05-07T05:49:20.378Z,99.90
2023-05-07T05:51:47.161Z,99.90
2023-05-07T05:54:15.083Z,99.90
2023-05-07T05:56:42.435Z,99.90
2023-05-07T05:59:19.097Z,99.90
2023-05-07T06:01:47.046Z,99.90
2023-05-07T06:04:13.749Z,99.90
2023-05-07T06:06:40.437Z,99.90
2023-05-07T06:09:07.133Z,99.90
2023-05-07T06:11:33.890Z,99.90
2023-05-07T06:14:00.604Z,99.90
2023-05-07T06:16:27.348Z,99.90
2023-05-07T06:18:54.160Z,99.90
2023-05-07T06:21:20.885Z,99.90
2023-05-07T06:23:47.604Z,99.90
2023-05-07T06:26:14.312Z,99.90
2023-05-07T06:28:41.079Z,99.90
2023-05-07T06:31:14.968Z,99.90
2023-05-07T06:33:41.799Z,99.90
2023-05-07T06:36:09.740Z,99.90
2023-05-07T06:38:37.153Z,99.90
2023-05-07T06:41:06.287Z,99.90
2023-05-07T06:43:33.144Z,99.90
2023-05-07T06:46:01.479Z,99.90
2023-05-07T06:48:29.268Z,99.90
2023-05-07T06:51:17.221Z,99.90
2023-05-07T06:53:45.022Z,99.90
2023-05-07T06:56:12.176Z,99.90
2023-05-07T06:58:40.079Z,99.90
2023-05-07T07:01:06.897Z,99.90
2023-05-07T07:03:36.211Z,99.90
2023-05-07T07:06:02.966Z,99.90
2023-05-07T07:08:30.722Z,99.90
2023-05-07T07:10:57.446Z,99.90
2023-05-07T07:13:24.305Z,99.90
2023-05-07T07:15:51.155Z,99.90
2023-05-07T07:18:17.835Z,99.90
2023-05-07T07:20:44.557Z,99.90
2023-05-07T07:23:11.384Z,99.90
2023-05-07T07:25:38.193Z,99.90
2023-05-07T07:28:04.899Z,99.90
2023-05-07T07:30:31.771Z,99.90
2023-05-07T07:32:58.522Z,99.90
2023-05-07T07:35:26.232Z,99.90
2023-05-07T07:37:53.021Z,99.90
2023-05-07T07:40:20.910Z,99.90
2023-05-07T07:42:49.194Z,99.90
2023-05-07T07:45:17.049Z,99.90
2023-05-07T07:47:43.861Z,99.90
2023-05-07T07:50:11.002Z,99.90
2023-05-07T07:52:38.303Z,99.90
2023-05-07T07:55:05.611Z,99.90
2023-05-07T07:57:32.288Z,99.90
2023-05-07T07:59:59.000Z,99.90
2023-05-07T08:02:25.725Z,99.90
2023-05-07T08:04:53.046Z,99.90
2023-05-07T08:07:19.756Z,99.90
2023-05-07T08:09:47.626Z,99.90
2023-05-07T08:12:14.353Z,99.90
2023-05-07T08:14:41.468Z,99.90
2023-05-07T08:17:09.219Z,99.90
2023-05-07T08:19:37.328Z,99.90
2023-05-07T08:22:05.347Z,99.90
2023-05-07T08:24:32.003Z,99.90
2023-05-07T08:26:58.663Z,99.90
2023-05-07T08:29:25.339Z,99.90
2023-05-07T08:31:52.021Z,99.90
2023-05-07T08:34:18.683Z,99.90
2023-05-07T08:36:45.341Z,99.90
2023-05-07T08:39:12.133Z,99.90
2023-05-07T08:41:39.028Z,99.90
2023-05-07T08:44:12.371Z,99.90
2023-05-07T08:46:40.174Z,99.90
2023-05-07T08:49:06.994Z,99.90
2023-05-07T08:51:33.765Z,99.90
2023-05-07T08:54:02.157Z,99.90
2023-05-07T08:56:32.420Z,99.90
2023-05-07T08:59:01.531Z,99.90
2023-05-07T09:01:29.668Z,99.90
2023-05-07T09:03:57.048Z,99.90
2023-05-07T09:06:24.149Z,99.90
2023-05-07T09:08:52.361Z,99.90
2023-05-07T09:11:24.499Z,99.90
2023-05-07T09:13:58.169Z,99.90
2023-05-07T09:16:25.662Z,99.90
2023-05-07T09:18:54.512Z,99.90
2023-05-07T09:21:24.144Z,99.90
2023-05-07T09:23:54.876Z,99.90
2023-05-07T09:26:25.549Z,99.90
2023-05-07T09:28:55.238Z,99.90
2023-05-07T09:31:23.129Z,99.90
2023-05-07T09:33:49.883Z,99.90
2023-05-07T09:36:17.147Z,99.90
2023-05-07T09:38:43.934Z,99.90
2023-05-07T09:41:13.218Z,99.90
2023-05-07T09:43:41.153Z,99.90
2023-05-07T09:46:15.815Z,99.90
2023-05-07T09:48:44.375Z,99.90
2023-05-07T09:51:43.993Z,99.90
2023-05-07T09:54:12.317Z,99.90
2023-05-07T09:56:40.303Z,99.90
2023-05-07T09:59:09.110Z,99.90
2023-05-07T10:01:37.852Z,99.90
2023-05-07T10:04:05.111Z,99.90
2023-05-07T10:06:32.345Z,99.90
2023-05-07T10:09:00.289Z,99.90
2023-05-07T10:11:27.506Z,99.90
2023-05-07T10:13:54.412Z,99.90
2023-05-07T10:16:22.371Z,99.90
2023-05-07T10:18:50.645Z,99.90
2023-05-07T10:21:20.166Z,99.90
2023-05-07T10:23:50.363Z,99.90
2023-05-07T10:26:19.114Z,99.90
2023-05-07T10:28:51.516Z,99.90
2023-05-07T10:31:43.202Z,99.90
2023-05-07T10:34:17.836Z,99.90
2023-05-07T10:36:45.372Z,99.90
2023-05-07T10:39:12.195Z,99.90
2023-05-07T10:41:39.892Z,99.90
2023-05-07T10:44:07.080Z,99.90
2023-05-07T10:46:33.890Z,99.90
2023-05-07T10:49:10.793Z,99.90
2023-05-07T10:51:40.495Z,99.90
2023-05-07T10:54:13.221Z,99.90
2023-05-07T10:56:44.414Z,99.90
2023-05-07T10:59:23.568Z,99.90
2023-05-07T11:02:10.774Z,99.90
2023-05-07T11:04:38.215Z,99.90
2023-05-07T11:07:28.470Z,99.90
2023-05-07T11:09:59.319Z,99.90
2023-05-07T11:12:41.536Z,99.90
2023-05-07T11:15:12.929Z,99.90
2023-05-07T11:18:00.698Z,99.90
2023-05-07T11:20:51.986Z,99.90
2023-05-07T11:23:34.151Z,99.90
2023-05-07T11:26:03.366Z,99.90
2023-05-07T11:28:31.331Z,99.90
2023-05-07T11:30:58.901Z,99.90
2023-05-07T11:33:26.514Z,99.90
2023-05-07T11:35:55.079Z,99.90
2023-05-07T11:38:22.433Z,99.90
2023-05-07T11:40:51.349Z,99.90
2023-05-07T11:43:18.601Z,99.90
2023-05-07T11:45:51.767Z,99.90
2023-05-07T11:48:21.896Z,99.90
2023-05-07T11:51:07.830Z,99.50
2023-05-07T11:53:43.398Z,99.10
2023-05-07T11:56:16.280Z,99.50
2023-05-07T11:58:44.602Z,99.00
2023-05-07T12:01:14.291Z,99.10
2023-05-07T12:03:42.913Z,98.40
2023-05-07T12:06:10.246Z,97.70
2023-05-07T12:08:43.650Z,97.60
2023-05-07T12:11:17.794Z,97.20
2023-05-07T12:13:45.296Z,97.20
2023-05-07T12:16:12.398Z,97.40
2023-05-07T12:18:40.052Z,96.80
2023-05-07T12:21:19.463Z,97.30
2023-05-07T12:23:49.102Z,97.00
2023-05-07T12:26:16.378Z,96.50
2023-05-07T12:28:44.330Z,96.30
2023-05-07T12:31:14.232Z,97.20
2023-05-07T12:33:43.847Z,95.90
2023-05-07T12:36:16.785Z,94.20
2023-05-07T12:38:46.084Z,93.90
2023-05-07T12:41:14.292Z,93.40
2023-05-07T12:43:45.073Z,93.10
2023-05-07T12:46:22.245Z,92.20
2023-05-07T12:48:49.517Z,91.70
2023-05-07T12:54:09.018Z,91.20
2023-05-07T12:56:41.530Z,89.50
2023-05-07T12:59:09.167Z,89.50
2023-05-07T13:04:17.895Z,89.80
2023-05-07T13:06:45.651Z,88.90
2023-05-07T13:09:14.763Z,87.80
2023-05-07T13:11:43.040Z,84.80
2023-05-07T13:14:17.764Z,83.10
2023-05-07T13:16:45.269Z,82.00
2023-05-07T13:19:14.610Z,80.60
2023-05-07T13:21:41.597Z,79.60
2023-05-07T13:24:08.732Z,81.10
2023-05-07T13:26:35.694Z,81.10
2023-05-07T13:29:02.536Z,80.70
2023-05-07T13:31:29.473Z,79.40
2023-05-07T13:33:56.353Z,79.10
2023-05-07T13:36:23.448Z,78.80
2023-05-07T13:38:51.819Z,78.00
2023-05-07T13:41:19.927Z,79.40
2023-05-07T13:43:47.294Z,79.40
2023-05-07T13:46:16.864Z,79.00
2023-05-07T13:48:44.038Z,77.90
2023-05-07T13:51:10.864Z,77.20
2023-05-07T13:53:37.689Z,77.00
2023-05-07T13:56:07.202Z,77.00
2023-05-07T13:58:34.026Z,77.40
2023-05-07T14:01:01.163Z,77.30
2023-05-07T14:03:28.857Z,77.60
2023-05-07T14:05:56.354Z,77.70
2023-05-07T14:08:23.358Z,79.00
2023-05-07T14:10:50.086Z,78.70
2023-05-07T14:13:16.998Z,78.30
2023-05-07T14:15:44.000Z,78.30
2023-05-07T14:18:12.470Z,76.70
2023-05-07T14:20:39.296Z,75.30
2023-05-07T14:23:08.610Z,76.30
2023-05-07T14:25:35.375Z,76.10
2023-05-07T14:28:02.249Z,75.90
2023-05-07T14:30:31.944Z,76.00
2023-05-07T14:32:58.802Z,76.90
2023-05-07T14:35:25.486Z,78.50
2023-05-07T14:37:52.176Z,77.10
2023-05-07T14:40:18.870Z,78.10
2023-05-07T14:42:45.694Z,76.30
2023-05-07T14:45:12.556Z,75.50
2023-05-07T14:47:39.474Z,76.30
2023-05-07T14:50:06.561Z,79.30
2023-05-07T14:52:33.267Z,76.80
2023-05-07T14:55:01.393Z,74.90
2023-05-07T14:57:32.674Z,73.50
2023-05-07T15:00:03.204Z,75.10
2023-05-07T15:02:32.537Z,74.40
2023-05-07T15:05:02.753Z,70.10
2023-05-07T15:07:34.002Z,70.30
2023-05-07T15:10:02.798Z,68.50
2023-05-07T15:12:31.742Z,68.70
2023-05-07T15:14:58.827Z,68.80
2023-05-07T15:17:25.962Z,68.00
2023-05-07T15:19:54.370Z,69.30
2023-05-07T15:22:21.524Z,69.30
2023-05-07T15:24:48.354Z,69.80
2023-05-07T15:27:15.274Z,70.00
2023-05-07T15:29:41.953Z,69.80
2023-05-07T15:32:08.811Z,69.70
2023-05-07T15:34:35.632Z,69.30
2023-05-07T15:37:02.581Z,69.30
2023-05-07T15:39:31.562Z,69.00
2023-05-07T15:41:59.338Z,67.30
2023-05-07T15:44:27.293Z,68.00
2023-05-07T15:46:55.593Z,68.50
2023-05-07T15:49:24.356Z,68.30
2023-05-07T15:52:00.951Z,69.10
2023-05-07T15:54:29.123Z,68.30
2023-05-07T15:56:57.892Z,68.00
2023-05-07T15:59:25.918Z,68.00
2023-05-07T16:01:53.813Z,67.70
2023-05-07T16:04:20.556Z,67.50
2023-05-07T16:06:47.405Z,67.40
2023-05-07T16:09:14.965Z,66.60
2023-05-07T16:11:41.982Z,66.10
2023-05-07T16:14:08.706Z,65.70
2023-05-07T16:16:36.309Z,65.70
2023-05-07T16:19:03.205Z,66.10
2023-05-07T16:21:29.869Z,66.30
2023-05-07T16:23:56.763Z,66.90
2023-05-07T16:26:23.512Z,66.90
2023-05-07T16:28:51.462Z,67.00
2023-05-07T16:31:18.568Z,67.20
2023-05-07T16:33:46.522Z,67.80
2023-05-07T16:36:16.374Z,68.20
2023-05-07T16:38:45.505Z,68.40
2023-05-07T16:41:13.716Z,68.90
2023-05-07T16:43:40.466Z,69.10
2023-05-07T16:46:07.257Z,69.70
2023-05-07T16:48:33.915Z,70.20
2023-05-07T16:51:01.719Z,70.70
2023-05-07T16:53:29.529Z,71.20
2023-05-07T16:55:57.328Z,71.80
2023-05-07T16:58:24.250Z,72.30
2023-05-07T17:00:51.392Z,72.70
2023-05-07T17:03:18.834Z,72.10
2023-05-07T17:05:46.082Z,72.30
2023-05-07T17:08:12.970Z,71.80
2023-05-07T17:10:39.854Z,71.40
2023-05-07T17:13:06.765Z,70.60
2023-05-07T17:15:39.878Z,71.00
2023-05-07T17:18:13.283Z,71.60
2023-05-07T17:20:41.275Z,72.30
2023-05-07T17:23:08.009Z,73.00
2023-05-07T17:25:36.453Z,72.40
2023-05-07T17:28:03.234Z,72.50
2023-05-07T17:30:32.596Z,72.60
2023-05-07T17:33:16.691Z,72.50
2023-05-07T17:35:49.332Z,72.80
2023-05-07T17:38:17.056Z,73.20
2023-05-07T17:40:44.840Z,73.50
2023-05-07T17:43:11.551Z,74.00
2023-05-07T17:45:39.865Z,74.40
2023-05-07T17:48:06.651Z,74.90
2023-05-07T17:50:35.967Z,75.40
2023-05-07T17:53:02.794Z,75.40
2023-05-07T17:55:30.554Z,75.40
2023-05-07T17:57:57.227Z,75.30
2023-05-07T18:00:24.269Z,75.40
2023-05-07T18:02:54.674Z,75.50
2023-05-07T18:05:21.573Z,75.60
2023-05-07T18:07:48.229Z,75.70
2023-05-07T18:10:14.907Z,76.10
2023-05-07T18:12:41.685Z,76.30
2023-05-07T18:15:09.133Z,76.60
2023-05-07T18:17:36.928Z,77.70
2023-05-07T18:20:05.574Z,77.60
2023-05-07T18:22:32.364Z,78.40
2023-05-07T18:24:59.064Z,79.00
2023-05-07T18:27:25.781Z,79.60
2023-05-07T18:29:54.744Z,79.80
2023-05-07T18:32:21.518Z,79.90
2023-05-07T18:34:48.669Z,80.00
2023-05-07T18:37:15.427Z,80.70
2023-05-07T18:39:42.281Z,80.90
2023-05-07T18:42:09.455Z,81.00
2023-05-07T18:44:36.172Z,81.30
2023-05-07T18:47:03.195Z,81.20
2023-05-07T18:49:30.020Z,81.50
2023-05-07T18:51:56.830Z,81.50
2023-05-07T18:54:26.638Z,81.40
2023-05-07T18:56:53.364Z,81.60
2023-05-07T18:59:23.617Z,81.50
2023-05-07T19:01:53.807Z,81.50
2023-05-07T19:04:21.979Z,81.80
2023-05-07T19:06:48.816Z,81.40
2023-05-07T19:09:15.519Z,81.00
2023-05-07T19:11:42.488Z,81.30
2023-05-07T19:14:09.184Z,81.50
2023-05-07T19:16:35.979Z,81.30
2023-05-07T19:19:02.734Z,81.60
2023-05-07T19:21:29.695Z,81.50
2023-05-07T19:23:56.380Z,82.00
2023-05-07T19:26:23.839Z,82.10
2023-05-07T19:29:06.569Z,82.40
2023-05-07T19:31:37.519Z,82.60
2023-05-07T19:34:04.229Z,83.00
2023-05-07T19:36:30.922Z,83.30
2023-05-07T19:38:57.614Z,83.50
2023-05-07T19:41:25.887Z,83.70
2023-05-07T19:43:53.115Z,83.90
2023-05-07T19:46:22.148Z,84.60
2023-05-07T19:48:49.057Z,84.80
2023-05-07T19:51:15.782Z,85.20
2023-05-07T19:53:42.645Z,85.50
2023-05-07T19:56:10.586Z,86.00
2023-05-07T19:58:38.121Z,86.60
2023-05-07T20:01:05.688Z,87.30
2023-05-07T20:03:33.692Z,87.10
2023-05-07T20:06:00.687Z,87.30
2023-05-07T20:08:28.286Z,87.80
2023-05-07T20:10:58.575Z,88.40
2023-05-07T20:13:27.073Z,88.70
2023-05-07T20:16:01.226Z,89.50
2023-05-07T20:18:29.776Z,89.80
2023-05-07T20:20:56.673Z,90.00
2023-05-07T20:23:24.999Z,90.30
2023-05-07T20:25:53.382Z,90.50
2023-05-07T20:28:20.100Z,90.70
2023-05-07T20:30:46.927Z,91.30
2023-05-07T20:33:14.123Z,92.20
2023-05-07T20:35:41.470Z,92.50
2023-05-07T20:38:11.100Z,92.80
2023-05-07T20:40:38.045Z,93.30
2023-05-07T20:43:06.097Z,93.70
2023-05-07T20:45:33.246Z,93.80
2023-05-07T20:48:00.303Z,94.30
2023-05-07T20:50:27.304Z,94.60
2023-05-07T20:52:57.243Z,95.30
2023-05-07T20:55:24.123Z,95.80
2023-05-07T20:57:50.819Z,96.10
2023-05-07T21:00:19.356Z,96.50
2023-05-07T21:02:47.777Z,96.70
2023-05-07T21:05:14.651Z,97.20
2023-05-07T21:07:41.376Z,97.20
2023-05-07T21:10:08.602Z,97.50
2023-05-07T21:12:35.597Z,98.20
2023-05-07T21:15:02.326Z,98.50
2023-05-07T21:17:29.098Z,98.90
2023-05-07T21:19:56.116Z,99.20
2023-05-07T21:22:22.908Z,99.60
2023-05-07T21:24:49.721Z,99.90
2023-05-07T21:27:16.534Z,99.90
2023-05-07T21:29:43.379Z,99.90
2023-05-07T21:32:10.332Z,99.90
2023-05-07T21:34:38.400Z,99.90
2023-05-07T21:37:06.080Z,99.90
2023-05-07T21:39:34.852Z,99.90
2023-05-07T21:42:03.305Z,99.90
2023-05-07T21:44:31.821Z,99.90
2023-05-07T21:46:58.553Z,99.90
2023-05-07T21:49:25.227Z,99.90
2023-05-07T21:51:52.006Z,99.90
2023-05-07T21:54:18.682Z,99.90
2023-05-07T21:56:47.221Z,99.90
2023-05-07T21:59:15.447Z,99.90
2023-05-07T22:01:43.448Z,99.90
2023-05-07T22:04:10.222Z,99.90
2023-05-07T22:06:38.370Z,99.90
2023-05-07T22:09:05.023Z,99.90
2023-05-07T22:11:31.778Z,99.90
2023-05-07T22:13:58.506Z,99.90
2023-05-07T22:16:25.243Z,99.90
2023-05-07T22:18:51.954Z,99.90
2023-05-07T22:21:20.422Z,99.90
2023-05-07T22:23:50.458Z,99.90
2023-05-07T22:26:19.441Z,99.90
2023-05-07T22:28:46.178Z,99.90
2023-05-07T22:31:12.946Z,99.90
2023-05-07T22:33:39.752Z,99.90
2023-05-07T22:36:07.099Z,99.90
2023-05-07T22:38:33.813Z,99.90
2023-05-07T22:41:00.589Z,99.90
2023-05-07T22:43:27.257Z,99.90
2023-05-07T22:46:01.644Z,99.90
2023-05-07T22:48:29.064Z,99.90
2023-05-07T22:50:56.072Z,99.90
2023-05-07T22:53:23.424Z,99.90
2023-05-07T22:55:50.447Z,99.90
2023-05-07T22:58:18.797Z,99.90
2023-05-07T23:00:45.587Z,99.90
2023-05-07T23:03:13.707Z,99.90
2023-05-07T23:05:42.949Z,99.90
2023-05-07T23:08:09.938Z,99.90
2023-05-07T23:10:36.648Z,99.90
2023-05-07T23:13:03.479Z,99.90
2023-05-07T23:15:30.244Z,99.90
2023-05-07T23:17:57.048Z,99.90
2023-05-07T23:20:24.105Z,99.90
2023-05-07T23:22:50.854Z,99.90
2023-05-07T23:25:17.768Z,99.90
2023-05-07T23:27:44.453Z,99.90
2023-05-07T23:30:11.984Z,99.90
2023-05-07T23:32:38.922Z,99.90
2023-05-07T23:35:06.202Z,99.90
2023-05-07T23:37:34.883Z,99.90
2023-05-07T23:40:01.643Z,99.90
2023-05-07T23:42:28.364Z,99.90
2023-05-07T23:44:56.297Z,99.90
2023-05-07T23:47:23.572Z,99.90
2023-05-07T23:49:51.666Z,99.90
2023-05-07T23:52:18.513Z,99.90
2023-05-07T23:54:45.300Z,99.90
2023-05-07T23:57:12.005Z,99.90
2023-05-07T23:59:38.629Z,99.90
